Time;durP1;ratioP1;P1;durP2;ratioP2;P2;SDS_P1;SDS_P2;PMS_P1;PMS_P2;Temp;Humidity;BMP_temperature;BMP_pressure;BME280_temperature;BME280_humidity;BME280_pressure;Samples;Min_cycle;Max_cycle;Signal;HPM_P1;HPM_P2
2020/12/06 00:01:29;;;;;;;14.02;10.57;;;256.70;1920.00;;;;;;5071764;28;20023;-58
2020/12/06 00:03:55;;;;;;;15.77;11.07;;;256.70;1920.00;;;;;;5073053;28;20044;-60
2020/12/06 00:06:21;;;;;;;15.20;10.18;;;256.70;1971.20;;;;;;5073225;28;20037;-61
2020/12/06 00:08:51;;;;;;;15.60;10.73;;;256.70;1945.60;;;;;;5073131;28;20043;-62
2020/12/06 00:11:18;;;;;;;14.80;10.40;;;256.70;1920.00;;;;;;5072821;28;20029;-65
2020/12/06 00:13:44;;;;;;;16.45;10.98;;;256.70;1920.00;;;;;;5073145;28;20020;-66
2020/12/06 00:16:14;;;;;;;14.20;10.77;;;256.60;1945.60;;;;;;5072835;28;20099;-64
2020/12/06 00:18:43;;;;;;;17.13;11.32;;;256.50;1945.60;;;;;;5072246;28;20028;-64
2020/12/06 00:21:15;;;;;;;16.83;11.38;;;256.50;1945.60;;;;;;5072476;28;20020;-64
2020/12/06 00:23:41;;;;;;;15.52;9.95;;;256.40;1945.60;;;;;;5071548;28;20037;-63
2020/12/06 00:26:07;;;;;;;15.68;10.52;;;256.40;1971.20;;;;;;5072522;28;20024;-65
2020/12/06 00:28:33;;;;;;;15.00;10.57;;;256.40;1971.20;;;;;;5072924;28;20442;-65
2020/12/06 00:30:59;;;;;;;16.52;11.50;;;256.40;1971.20;;;;;;5072648;28;20016;-65
2020/12/06 00:33:25;;;;;;;18.35;11.55;;;256.40;1971.20;;;;;;5072812;28;20040;-65
2020/12/06 00:35:51;;;;;;;14.90;10.80;;;256.30;1971.20;;;;;;5072593;28;20394;-65
2020/12/06 00:38:17;;;;;;;16.25;10.38;;;256.40;1971.20;;;;;;5072568;28;20066;-66
2020/12/06 00:40:42;;;;;;;15.25;10.55;;;256.40;1971.20;;;;;;5071775;28;20055;-67
2020/12/06 00:43:08;;;;;;;14.50;9.98;;;256.30;1971.20;;;;;;5072292;28;20115;-68
2020/12/06 00:45:34;;;;;;;17.40;11.00;;;256.40;1971.20;;;;;;5072605;28;20028;-68
2020/12/06 00:47:59;;;;;;;14.52;10.57;;;256.40;1971.20;;;;;;5070065;28;20485;-63
2020/12/06 00:50:25;;;;;;;15.82;10.35;;;256.30;1971.20;;;;;;5072289;28;20021;-62
2020/12/06 00:52:51;;;;;;;16.73;11.15;;;256.30;1971.20;;;;;;5072395;28;20020;-64
2020/12/06 00:55:16;;;;;;;16.45;11.23;;;256.30;1971.20;;;;;;5072363;28;20033;-66
2020/12/06 00:57:42;;;;;;;16.05;10.77;;;256.30;1971.20;;;;;;5072105;28;20048;-65
2020/12/06 01:00:09;;;;;;;16.38;11.00;;;256.30;1971.20;;;;;;5072001;28;20534;-65
2020/12/06 01:02:35;;;;;;;14.45;10.10;;;256.30;1971.20;;;;;;5072379;28;20477;-64
2020/12/06 01:05:00;;;;;;;16.13;11.48;;;256.30;1971.20;;;;;;5071978;28;20040;-66
2020/12/06 01:07:27;;;;;;;15.00;10.73;;;256.30;1971.20;;;;;;5072041;28;20021;-65
2020/12/06 01:09:52;;;;;;;15.38;10.50;;;256.20;1996.80;;;;;;5072449;28;20024;-65
2020/12/06 01:12:18;;;;;;;16.33;10.90;;;256.20;1996.80;;;;;;5071690;28;20027;-64
2020/12/06 01:14:44;;;;;;;15.07;11.00;;;256.20;1996.80;;;;;;5072121;28;20025;-65
2020/12/06 01:17:09;;;;;;;17.20;10.70;;;256.20;1996.80;;;;;;5072001;28;20024;-67
2020/12/06 01:19:35;;;;;;;13.77;10.00;;;256.20;1996.80;;;;;;5072192;28;20027;-65
2020/12/06 01:22:01;;;;;;;15.30;10.35;;;256.20;1996.80;;;;;;5071920;28;20108;-68
2020/12/06 01:24:26;;;;;;;13.57;10.52;;;256.20;1996.80;;;;;;5072206;28;20040;-67
2020/12/06 01:26:52;;;;;;;13.50;10.05;;;256.10;1996.80;;;;;;5071692;28;20459;-67
2020/12/06 01:29:18;;;;;;;15.52;10.90;;;256.10;1996.80;;;;;;5071915;28;20104;-67
2020/12/06 01:31:48;;;;;;;14.00;9.95;;;256.10;1996.80;;;;;;5072056;28;20056;-66
2020/12/06 01:34:15;;;;;;;18.38;12.48;;;256.10;1996.80;;;;;;5072095;28;20040;-68
2020/12/06 01:36:42;;;;;;;16.48;10.43;;;256.20;1971.20;;;;;;5075383;28;20025;-67
2020/12/06 01:39:08;;;;;;;13.77;9.60;;;256.20;1996.80;;;;;;5075974;28;20091;-66
2020/12/06 01:41:35;;;;;;;16.77;9.40;;;256.10;1971.20;;;;;;5075983;28;20113;-66
2020/12/06 01:44:03;;;;;;;14.52;9.88;;;256.10;1971.20;;;;;;5075192;28;20071;-66
2020/12/06 01:46:30;;;;;;;15.02;10.50;;;256.20;1971.20;;;;;;5076079;28;20024;-67
2020/12/06 01:48:56;;;;;;;13.38;9.98;;;256.10;1996.80;;;;;;5075797;28;20040;-65
2020/12/06 01:51:22;;;;;;;12.63;9.48;;;256.00;1996.80;;;;;;5075449;28;20021;-66
2020/12/06 01:53:50;;;;;;;12.82;9.65;;;256.10;1996.80;;;;;;5075653;28;20032;-67
2020/12/06 01:56:16;;;;;;;12.43;9.70;;;256.00;1996.80;;;;;;5072817;28;20021;-62
2020/12/06 01:58:42;;;;;;;13.38;9.40;;;256.10;1971.20;;;;;;5068140;28;20043;-68
2020/12/06 02:01:08;;;;;;;15.05;10.30;;;256.10;1971.20;;;;;;5075285;28;20028;-66
2020/12/06 02:03:35;;;;;;;15.07;9.65;;;256.10;1971.20;;;;;;5075537;28;20071;-67
2020/12/06 02:06:00;;;;;;;13.02;8.80;;;256.10;1971.20;;;;;;5075300;28;20140;-63
2020/12/06 02:08:27;;;;;;;13.02;8.50;;;256.10;1971.20;;;;;;5075091;28;20107;-64
2020/12/06 02:10:54;;;;;;;12.52;9.15;;;256.10;1971.20;;;;;;5075412;28;20029;-66
2020/12/06 02:13:23;;;;;;;13.35;9.25;;;256.10;1971.20;;;;;;5075659;28;20035;-65
2020/12/06 02:15:49;;;;;;;14.25;9.60;;;256.10;1971.20;;;;;;5075052;28;20028;-66
2020/12/06 02:18:15;;;;;;;12.82;9.38;;;256.10;1971.20;;;;;;5075278;28;20028;-67
2020/12/06 02:20:41;;;;;;;14.88;9.70;;;256.10;1971.20;;;;;;5075391;28;20460;-65
2020/12/06 02:23:07;;;;;;;15.80;9.73;;;256.10;1971.20;;;;;;5075438;28;20490;-66
2020/12/06 02:25:36;;;;;;;14.38;9.25;;;256.00;1971.20;;;;;;5075254;28;20020;-66
2020/12/06 02:28:03;;;;;;;12.40;8.35;;;256.10;1971.20;;;;;;5075053;28;20063;-67
2020/12/06 02:30:30;;;;;;;13.75;9.77;;;256.10;1945.60;;;;;;5075058;28;20017;-64
2020/12/06 02:32:55;;;;;;;12.95;9.00;;;256.00;1971.20;;;;;;5075642;28;20098;-67
2020/12/06 02:35:21;;;;;;;14.95;10.18;;;256.10;1971.20;;;;;;5074885;28;20474;-65
2020/12/06 02:37:47;;;;;;;12.13;9.65;;;256.10;1945.60;;;;;;5075236;28;20051;-67
2020/12/06 02:40:13;;;;;;;14.00;8.80;;;256.10;1971.20;;;;;;5075194;28;20028;-63
2020/12/06 02:42:39;;;;;;;14.07;8.85;;;256.10;1971.20;;;;;;5074473;28;20363;-67
2020/12/06 02:45:05;;;;;;;13.50;9.70;;;256.10;1971.20;;;;;;5075074;28;20111;-66
2020/12/06 02:47:30;;;;;;;12.52;8.63;;;256.00;1971.20;;;;;;5073809;28;20532;-64
2020/12/06 02:49:56;;;;;;;13.35;9.45;;;256.00;1971.20;;;;;;5075057;28;20028;-67
2020/12/06 02:52:22;;;;;;;13.30;9.60;;;256.00;1971.20;;;;;;5074800;28;20032;-67
2020/12/06 02:54:48;;;;;;;14.15;10.07;;;256.00;1971.20;;;;;;5074878;28;20398;-67
2020/12/06 02:57:14;;;;;;;15.32;8.93;;;256.00;1971.20;;;;;;5074616;28;20017;-67
2020/12/06 02:59:39;;;;;;;13.13;9.07;;;231.30;1971.20;;;;;;5074694;28;20355;-67
2020/12/06 03:02:05;;;;;;;18.83;10.07;;;231.30;1971.20;;;;;;5074726;28;20025;-63
2020/12/06 03:04:31;;;;;;;14.43;9.23;;;231.30;1971.20;;;;;;5074157;28;20059;-66
2020/12/06 03:06:56;;;;;;;14.82;9.93;;;231.30;1971.20;;;;;;5074744;28;20086;-65
2020/12/06 03:09:22;;;;;;;12.95;9.00;;;231.20;1971.20;;;;;;5074625;28;20028;-59
2020/12/06 03:11:48;;;;;;;13.65;9.05;;;231.30;1971.20;;;;;;5074377;28;20020;-66
2020/12/06 03:14:14;;;;;;;12.02;8.85;;;231.20;1971.20;;;;;;5074304;28;20028;-66
2020/12/06 03:16:40;;;;;;;14.55;9.88;;;231.30;1945.60;;;;;;5072174;28;20040;-67
2020/12/06 03:19:06;;;;;;;13.20;9.70;;;231.20;1971.20;;;;;;5073289;28;20070;-66
2020/12/06 03:21:31;;;;;;;13.55;9.07;;;231.30;1945.60;;;;;;5074222;28;20059;-65
2020/12/06 03:23:57;;;;;;;12.35;9.55;;;231.30;1945.60;;;;;;5074138;28;20115;-65
2020/12/06 03:26:23;;;;;;;11.95;8.27;;;231.20;1945.60;;;;;;5074197;28;20024;-67
2020/12/06 03:28:48;;;;;;;13.68;9.07;;;231.30;1945.60;;;;;;5074536;28;20029;-67
2020/12/06 03:31:14;;;;;;;14.60;8.82;;;231.20;1945.60;;;;;;5073913;28;20024;-66
2020/12/06 03:33:40;;;;;;;13.70;8.75;;;231.30;1945.60;;;;;;5073004;28;20478;-67
2020/12/06 03:36:05;;;;;;;13.82;8.98;;;231.20;1945.60;;;;;;5074064;28;20107;-66
2020/12/06 03:38:31;;;;;;;11.25;8.43;;;231.10;1971.20;;;;;;5073944;28;20052;-67
2020/12/06 03:40:57;;;;;;;15.55;7.85;;;231.20;1945.60;;;;;;5074340;28;20081;-66
2020/12/06 03:43:23;;;;;;;11.90;8.98;;;231.20;1945.60;;;;;;5074222;28;20036;-67
2020/12/06 03:45:48;;;;;;;10.98;7.97;;;231.30;1945.60;;;;;;5073956;28;20028;-67
2020/12/06 03:48:14;;;;;;;13.15;8.60;;;231.30;1945.60;;;;;;5073777;28;20025;-59
2020/12/06 03:50:39;;;;;;;14.25;7.80;;;231.30;1920.00;;;;;;5073765;28;20032;-64
2020/12/06 03:53:05;;;;;;;11.68;7.35;;;231.30;1945.60;;;;;;5073886;28;20020;-67
2020/12/06 03:55:31;;;;;;;13.10;8.63;;;231.30;1920.00;;;;;;5073827;28;20382;-66
2020/12/06 03:57:56;;;;;;;12.52;7.85;;;231.30;1945.60;;;;;;5073523;28;20024;-67
2020/12/06 04:00:22;;;;;;;12.20;8.23;;;231.30;1945.60;;;;;;5073156;28;20048;-67
2020/12/06 04:02:51;;;;;;;12.10;8.05;;;231.30;1945.60;;;;;;5073519;28;20043;-67
2020/12/06 04:05:20;;;;;;;11.18;7.00;;;231.20;1945.60;;;;;;5073384;28;20045;-65
2020/12/06 04:07:50;;;;;;;11.35;7.30;;;231.30;1945.60;;;;;;5059739;28;20051;-67
2020/12/06 04:10:17;;;;;;;10.93;7.57;;;231.20;1945.60;;;;;;5073590;28;20028;-68
2020/12/06 04:12:43;;;;;;;11.73;7.40;;;231.30;1920.00;;;;;;5073685;28;20492;-66
2020/12/06 04:15:09;;;;;;;12.05;7.68;;;231.20;1945.60;;;;;;5073313;28;20472;-67
2020/12/06 04:17:35;;;;;;;11.20;7.90;;;231.30;1945.60;;;;;;5072947;28;20024;-66
2020/12/06 04:20:01;;;;;;;10.38;7.30;;;231.30;1920.00;;;;;;5073686;28;20021;-66
2020/12/06 04:22:26;;;;;;;11.75;7.47;;;231.30;1920.00;;;;;;5072960;28;20020;-67
2020/12/06 04:24:52;;;;;;;14.85;8.27;;;231.30;1920.00;;;;;;5073018;28;20074;-63
2020/12/06 04:27:18;;;;;;;13.07;8.57;;;231.30;1920.00;;;;;;5073091;28;20095;-67
2020/12/06 04:29:43;;;;;;;10.32;7.57;;;231.20;1945.60;;;;;;5072914;28;20107;-67
2020/12/06 04:32:09;;;;;;;10.38;7.13;;;231.20;1945.60;;;;;;5072921;28;20060;-67
2020/12/06 04:34:37;;;;;;;12.20;8.25;;;231.20;1945.60;;;;;;5073051;28;20036;-67
2020/12/06 04:37:04;;;;;;;10.60;7.43;;;231.20;1945.60;;;;;;5072507;28;20024;-66
2020/12/06 04:39:30;;;;;;;13.00;8.68;;;231.20;1945.60;;;;;;5072901;28;20025;-67
2020/12/06 04:41:56;;;;;;;13.75;7.60;;;231.20;1945.60;;;;;;5072716;28;20029;-66
2020/12/06 04:44:22;;;;;;;12.50;8.13;;;231.20;1945.60;;;;;;5072857;28;20436;-67
2020/12/06 04:46:48;;;;;;;10.38;7.38;;;231.20;1945.60;;;;;;5072536;28;20017;-63
2020/12/06 04:49:24;;;;;;;11.15;6.90;;;231.20;1945.60;;;;;;5072751;28;20111;-64
2020/12/06 04:51:54;;;;;;;11.10;7.38;;;231.20;1945.60;;;;;;5072443;28;20016;-67
2020/12/06 04:54:27;;;;;;;13.32;8.85;;;231.20;1945.60;;;;;;5072877;28;20466;-67
2020/12/06 04:57:00;;;;;;;12.63;7.97;;;231.20;1945.60;;;;;;5072672;28;20020;-66
2020/12/06 04:59:27;;;;;;;10.27;7.93;;;231.10;1945.60;;;;;;5073027;28;20371;-66
2020/12/06 05:01:54;;;;;;;10.60;8.15;;;231.20;1945.60;;;;;;5072641;28;20455;-66
2020/12/06 05:04:23;;;;;;;11.90;7.75;;;231.20;1945.60;;;;;;5072197;28;20056;-67
2020/12/06 05:06:49;;;;;;;10.45;8.13;;;231.20;1945.60;;;;;;5072430;28;20024;-66
2020/12/06 05:09:15;;;;;;;13.25;8.32;;;231.20;1945.60;;;;;;5072567;28;20074;-67
2020/12/06 05:11:43;;;;;;;11.55;7.65;;;231.20;1945.60;;;;;;5072160;28;20027;-66
2020/12/06 05:14:09;;;;;;;10.32;7.40;;;231.20;1945.60;;;;;;5072385;28;20021;-66
2020/12/06 05:16:39;;;;;;;12.70;8.05;;;231.20;1945.60;;;;;;5072248;28;20024;-63
2020/12/06 05:19:09;;;;;;;13.25;8.05;;;231.20;1945.60;;;;;;5072396;28;20103;-66
2020/12/06 05:21:38;;;;;;;12.30;8.15;;;231.20;1945.60;;;;;;5072404;28;20024;-62
2020/12/06 05:24:04;;;;;;;10.80;7.60;;;231.20;1945.60;;;;;;5072359;28;20032;-67
2020/12/06 05:26:30;;;;;;;10.70;7.78;;;231.20;1945.60;;;;;;5072138;28;20032;-66
2020/12/06 05:28:56;;;;;;;12.07;7.05;;;231.30;1945.60;;;;;;5072302;28;20025;-60
2020/12/06 05:31:23;;;;;;;11.10;7.70;;;231.20;1945.60;;;;;;5072399;28;20031;-65
2020/12/06 05:33:49;;;;;;;12.07;6.95;;;231.20;1945.60;;;;;;5072145;28;20032;-66
2020/12/06 05:36:15;;;;;;;10.93;7.35;;;231.20;1945.60;;;;;;5072067;28;20459;-64
2020/12/06 05:38:41;;;;;;;11.45;7.75;;;231.20;1945.60;;;;;;5072106;28;20025;-67
2020/12/06 05:41:07;;;;;;;10.35;7.70;;;231.20;1945.60;;;;;;5072326;28;20094;-67
2020/12/06 05:43:36;;;;;;;9.73;7.20;;;231.20;1945.60;;;;;;5072678;28;20036;-67
2020/12/06 05:46:16;;;;;;;10.18;7.22;;;231.20;1945.60;;;;;;5071966;28;20423;-67
2020/12/06 05:48:44;;;;;;;11.38;7.95;;;231.20;1945.60;;;;;;5071953;28;20075;-66
2020/12/06 05:51:10;;;;;;;10.80;7.45;;;231.20;1945.60;;;;;;5071910;28;20539;-66
2020/12/06 05:53:36;;;;;;;10.93;8.23;;;231.20;1945.60;;;;;;5072409;28;20051;-67
2020/12/06 05:56:13;;;;;;;11.82;8.23;;;231.20;1945.60;;;;;;5072062;28;20067;-67
2020/12/06 05:58:44;;;;;;;11.52;7.80;;;231.20;1945.60;;;;;;5072469;28;20023;-66
2020/12/06 06:01:14;;;;;;;12.05;8.27;;;231.20;1945.60;;;;;;5071745;28;20025;-65
2020/12/06 06:03:43;;;;;;;11.95;7.40;;;231.20;1945.60;;;;;;5071915;28;20037;-67
2020/12/06 06:06:13;;;;;;;11.75;7.97;;;231.20;1945.60;;;;;;5072033;28;20093;-67
2020/12/06 06:08:41;;;;;;;9.80;6.97;;;231.20;1945.60;;;;;;5071940;28;20033;-66
2020/12/06 06:11:26;;;;;;;11.93;8.18;;;231.20;1945.60;;;;;;5071998;28;20083;-66
2020/12/06 06:13:55;;;;;;;12.27;8.43;;;231.20;1945.60;;;;;;5071778;28;20041;-66
2020/12/06 06:16:21;;;;;;;12.93;8.88;;;231.20;1945.60;;;;;;5071793;28;20458;-67
2020/12/06 06:18:48;;;;;;;12.63;8.50;;;231.20;1945.60;;;;;;5071848;28;20123;-67
2020/12/06 06:21:19;;;;;;;12.65;8.25;;;231.20;1945.60;;;;;;5071592;28;20031;-66
2020/12/06 06:23:47;;;;;;;11.98;8.43;;;231.30;1945.60;;;;;;5075157;28;20033;-67
2020/12/06 06:26:16;;;;;;;14.50;8.73;;;231.30;1945.60;;;;;;5075495;28;20091;-66
2020/12/06 06:28:44;;;;;;;12.52;8.43;;;231.20;1945.60;;;;;;5075419;28;20032;-66
2020/12/06 06:31:11;;;;;;;11.73;8.98;;;231.20;1945.60;;;;;;5074748;28;20016;-67
2020/12/06 06:33:38;;;;;;;12.32;8.27;;;256.00;1945.60;;;;;;5075427;28;20490;-67
2020/12/06 06:36:07;;;;;;;11.40;8.23;;;256.10;1920.00;;;;;;5073879;28;20500;-67
2020/12/06 06:38:42;;;;;;;12.65;9.23;;;256.00;1920.00;;;;;;5075422;28;20024;-66
2020/12/06 06:41:09;;;;;;;12.38;8.45;;;256.00;1920.00;;;;;;5056865;28;20024;-66
2020/12/06 06:43:36;;;;;;;13.23;10.20;;;256.10;1920.00;;;;;;5075512;28;20033;-67
2020/12/06 06:46:21;;;;;;;11.80;8.55;;;256.10;1920.00;;;;;;5074044;28;20021;-66
2020/12/06 06:48:49;;;;;;;15.95;10.90;;;256.20;1920.00;;;;;;5074416;28;20033;-66
2020/12/06 06:51:20;;;;;;;13.87;9.87;;;256.20;1920.00;;;;;;5074524;28;20054;-67
2020/12/06 06:53:45;;;;;;;16.25;9.90;;;256.10;1920.00;;;;;;5074974;28;20382;-66
2020/12/06 06:56:12;;;;;;;13.52;9.15;;;256.20;1920.00;;;;;;5074479;28;20091;-66
2020/12/06 06:58:38;;;;;;;13.90;9.27;;;256.30;1894.40;;;;;;5074965;28;20025;-67
2020/12/06 07:01:18;;;;;;;16.23;9.75;;;256.40;1894.40;;;;;;5074549;28;20020;-67
2020/12/06 07:03:53;;;;;;;13.10;8.98;;;256.50;1868.80;;;;;;5061035;28;20051;-67
2020/12/06 07:06:46;;;;;;;17.13;10.68;;;256.70;1868.80;;;;;;5074707;28;20035;-67
2020/12/06 07:09:20;;;;;;;23.98;15.43;;;256.80;1843.20;;;;;;5064104;28;20031;-66
2020/12/06 07:11:47;;;;;;;61.00;34.33;;;256.90;1843.20;;;;;;5074209;28;20103;-67
2020/12/06 07:14:13;;;;;;;96.30;51.78;;;256.90;1843.20;;;;;;5075167;28;20482;-67
2020/12/06 07:16:39;;;;;;;24.67;17.70;;;281.60;1868.80;;;;;;5074285;28;20035;-66
2020/12/06 07:19:05;;;;;;;34.50;27.42;;;281.60;1843.20;;;;;;5074601;28;20025;-67
2020/12/06 07:21:35;;;;;;;22.42;18.40;;;281.60;1843.20;;;;;;5074350;28;20486;-66
2020/12/06 07:24:04;;;;;;;17.33;11.30;;;256.90;1817.60;;;;;;5074227;28;20032;-67
2020/12/06 07:26:31;;;;;;;16.92;12.45;;;256.90;1817.60;;;;;;5074382;28;20021;-67
2020/12/06 07:28:57;;;;;;;15.98;10.75;;;281.60;1843.20;;;;;;5074259;28;20028;-67
2020/12/06 07:31:24;;;;;;;14.73;10.13;;;281.70;1843.20;;;;;;5074050;28;20093;-67
2020/12/06 07:33:50;;;;;;;16.30;9.95;;;281.70;1843.20;;;;;;5073707;28;20429;-66
2020/12/06 07:36:16;;;;;;;16.63;10.43;;;281.90;1817.60;;;;;;5055738;28;20039;-63
2020/12/06 07:38:42;;;;;;;12.20;8.90;;;281.90;1817.60;;;;;;5074171;28;20066;-67
2020/12/06 07:41:08;;;;;;;14.73;10.20;;;281.90;1817.60;;;;;;5073645;28;20059;-67
2020/12/06 07:43:34;;;;;;;14.52;9.35;;;281.90;1817.60;;;;;;5074103;28;20064;-66
2020/12/06 07:46:16;;;;;;;15.60;10.35;;;281.90;1817.60;;;;;;5074080;28;20430;-66
2020/12/06 07:48:42;;;;;;;14.50;9.32;;;282.00;1817.60;;;;;;5074468;28;20020;-66
2020/12/06 07:51:08;;;;;;;16.13;10.63;;;282.20;1792.00;;;;;;5073633;28;20031;-66
2020/12/06 07:53:51;;;;;;;13.15;8.73;;;282.30;1766.40;;;;;;5073920;28;20119;-67
2020/12/06 07:56:24;;;;;;;13.88;9.43;;;282.30;1766.40;;;;;;5073465;28;20095;-67
2020/12/06 07:59:15;;;;;;;20.70;12.88;;;282.40;1766.40;;;;;;5073804;28;20103;-66
2020/12/06 08:01:42;;;;;;;15.05;11.18;;;282.50;1740.80;;;;;;5056620;28;20046;-66
2020/12/06 08:04:12;;;;;;;37.80;31.77;;;307.20;1766.40;;;;;;5073469;28;20048;-67
2020/12/06 08:06:41;;;;;;;18.80;13.82;;;307.20;1766.40;;;;;;5073591;28;20430;-67
2020/12/06 08:09:08;;;;;;;15.00;9.82;;;307.20;1766.40;;;;;;5055582;28;20386;-63
2020/12/06 08:11:38;;;;;;;17.08;12.05;;;307.30;1766.40;;;;;;5073756;28;20081;-67
2020/12/06 08:14:04;;;;;;;16.33;11.32;;;307.30;1766.40;;;;;;5072622;28;20169;-67
2020/12/06 08:16:30;;;;;;;22.15;13.23;;;307.30;1766.40;;;;;;5072173;28;20025;-67
2020/12/06 08:19:00;;;;;;;18.73;12.90;;;307.30;1740.80;;;;;;5072779;28;20577;-66
2020/12/06 08:21:41;;;;;;;45.67;30.20;;;307.20;1766.40;;;;;;5072629;28;20019;-66
2020/12/06 08:24:23;;;;;;;14.48;10.38;;;307.30;1766.40;;;;;;5071347;28;20170;-67
2020/12/06 08:26:51;;;;;;;12.20;8.38;;;307.40;1740.80;;;;;;5072087;28;20121;-67
2020/12/06 08:29:18;;;;;;;19.13;11.90;;;307.40;1740.80;;;;;;5070132;28;20021;-68
2020/12/06 08:31:45;;;;;;;11.57;7.72;;;307.40;1740.80;;;;;;5072284;28;20012;-67
2020/12/06 08:34:16;;;;;;;10.45;7.78;;;307.50;1740.80;;;;;;5072632;28;20194;-65
2020/12/06 08:36:42;;;;;;;11.75;8.18;;;307.60;1715.20;;;;;;5070339;28;20025;-67
2020/12/06 08:39:18;;;;;;;11.82;8.65;;;307.70;1715.20;;;;;;5072329;28;20016;-67
2020/12/06 08:41:44;;;;;;;14.10;9.95;;;307.60;1715.20;;;;;;5070502;28;20024;-66
2020/12/06 08:44:09;;;;;;;13.27;11.95;;;307.70;1715.20;;;;;;5071982;28;20359;-66
2020/12/06 08:46:35;;;;;;;12.85;7.88;;;307.70;1715.20;;;;;;5071789;28;20103;-63
2020/12/06 08:49:13;;;;;;;10.68;7.88;;;307.70;1689.60;;;;;;5072292;28;20033;-68
2020/12/06 08:51:39;;;;;;;10.15;7.47;;;307.80;1689.60;;;;;;5070291;28;20012;-68
2020/12/06 08:54:08;;;;;;;11.13;8.25;;;307.90;1689.60;;;;;;5072204;28;20083;-67
2020/12/06 08:56:38;;;;;;;12.65;7.30;;;307.90;1689.60;;;;;;5071804;28;20463;-67
2020/12/06 08:59:12;;;;;;;11.15;6.95;;;308.00;1664.00;;;;;;5072002;28;20023;-67
2020/12/06 09:01:58;;;;;;;15.98;7.30;;;308.00;1664.00;;;;;;5071513;28;20020;-67
2020/12/06 09:04:25;;;;;;;11.55;7.43;;;308.10;1664.00;;;;;;5070289;28;20494;-62
2020/12/06 09:06:53;;;;;;;11.13;7.72;;;308.10;1664.00;;;;;;5072251;28;20021;-68
2020/12/06 09:09:19;;;;;;;12.85;8.02;;;332.80;1664.00;;;;;;5069727;28;20063;-66
2020/12/06 09:11:44;;;;;;;12.82;7.05;;;332.80;1664.00;;;;;;5071812;28;20047;-66
2020/12/06 09:14:10;;;;;;;20.35;12.63;;;332.90;1664.00;;;;;;5072180;28;20066;-66
2020/12/06 09:16:39;;;;;;;10.38;7.38;;;332.90;1664.00;;;;;;5071645;28;20039;-65
2020/12/06 09:19:05;;;;;;;11.05;7.40;;;333.00;1664.00;;;;;;5054200;28;20024;-65
2020/12/06 09:21:30;;;;;;;11.75;8.15;;;333.00;1638.40;;;;;;5071592;28;20508;-65
2020/12/06 09:23:56;;;;;;;12.05;7.88;;;333.00;1638.40;;;;;;5071779;28;20032;-65
2020/12/06 09:26:22;;;;;;;11.60;8.00;;;333.10;1638.40;;;;;;5071906;28;20020;-66
2020/12/06 09:28:47;;;;;;;11.75;7.72;;;333.10;1638.40;;;;;;5071797;28;20529;-67
2020/12/06 09:31:13;;;;;;;12.80;9.30;;;333.10;1638.40;;;;;;5071999;28;20477;-65
2020/12/06 09:33:39;;;;;;;10.40;7.03;;;333.10;1638.40;;;;;;5071796;28;20394;-61
2020/12/06 09:36:04;;;;;;;12.18;8.40;;;332.90;1638.40;;;;;;5071769;28;20428;-67
2020/12/06 09:38:30;;;;;;;11.73;7.13;;;333.00;1638.40;;;;;;5071597;28;20423;-67
2020/12/06 09:40:56;;;;;;;13.93;8.38;;;333.00;1638.40;;;;;;5071922;28;20054;-67
2020/12/06 09:43:22;;;;;;;13.32;7.70;;;333.10;1612.80;;;;;;5071690;28;20382;-67
2020/12/06 09:45:48;;;;;;;11.68;7.95;;;333.10;1638.40;;;;;;5071772;28;20050;-68
2020/12/06 09:48:14;;;;;;;10.18;7.15;;;333.10;1766.40;;;;;;5071887;28;20162;-59
2020/12/06 09:50:39;;;;;;;34.03;30.50;;;333.00;1612.80;;;;;;5071904;28;20097;-62
2020/12/06 09:53:05;;;;;;;12.98;10.85;;;333.10;1612.80;;;;;;5072189;28;20106;-60
2020/12/06 09:55:31;;;;;;;16.55;14.77;;;332.90;1612.80;;;;;;5071800;28;20409;-59
2020/12/06 09:57:57;;;;;;;12.80;9.25;;;333.10;1612.80;;;;;;5075835;28;20021;-59
2020/12/06 10:00:22;;;;;;;14.23;7.90;;;333.20;1587.20;;;;;;5075702;28;20479;-58
2020/12/06 10:02:48;;;;;;;12.70;8.27;;;333.20;1587.20;;;;;;5075726;28;20028;-60
2020/12/06 10:05:15;;;;;;;14.40;9.45;;;333.30;1587.20;;;;;;5076055;28;20093;-60
2020/12/06 10:07:41;;;;;;;14.20;8.27;;;333.30;1561.60;;;;;;5075365;28;20051;-59
2020/12/06 10:10:08;;;;;;;12.23;7.82;;;333.40;1561.60;;;;;;5076149;28;20032;-58
2020/12/06 10:12:34;;;;;;;12.05;8.13;;;333.40;1561.60;;;;;;5075606;28;20368;-59
2020/12/06 10:15:00;;;;;;;11.93;7.55;;;333.40;1561.60;;;;;;5075635;28;20370;-58
2020/12/06 10:17:26;;;;;;;9.30;6.20;;;333.40;1561.60;;;;;;5075128;28;20070;-58
2020/12/06 10:19:51;;;;;;;12.00;7.78;;;333.40;1561.60;;;;;;5075536;28;20043;-59
2020/12/06 10:22:17;;;;;;;10.57;7.05;;;333.30;1561.60;;;;;;5075293;28;20032;-59
2020/12/06 10:24:43;;;;;;;12.23;6.45;;;333.40;1536.00;;;;;;5075463;28;20064;-58
2020/12/06 10:27:09;;;;;;;11.63;7.53;;;333.40;1536.00;;;;;;5074944;28;20131;-58
2020/12/06 10:29:34;;;;;;;11.30;8.10;;;333.40;1536.00;;;;;;5048565;28;20039;-57
2020/12/06 10:32:00;;;;;;;10.50;7.00;;;333.60;1536.00;;;;;;5075138;28;20103;-60
2020/12/06 10:34:27;;;;;;;10.15;7.45;;;333.40;1561.60;;;;;;5074944;28;20017;-58
2020/12/06 10:36:55;;;;;;;11.50;7.47;;;333.40;1561.60;;;;;;5075010;28;20020;-58
2020/12/06 10:39:21;;;;;;;9.23;6.97;;;333.50;1561.60;;;;;;5073928;28;20069;-58
2020/12/06 10:41:51;;;;;;;13.35;8.48;;;333.60;1536.00;;;;;;5075012;28;20032;-60
2020/12/06 10:44:17;;;;;;;10.82;7.68;;;333.60;1536.00;;;;;;5074664;28;20056;-60
2020/12/06 10:46:44;;;;;;;10.35;6.70;;;333.70;1536.00;;;;;;5075016;28;20048;-59
2020/12/06 10:49:10;;;;;;;10.73;7.10;;;333.60;1536.00;;;;;;5074873;28;20074;-59
2020/12/06 10:51:40;;;;;;;13.27;7.93;;;333.50;1561.60;;;;;;5073534;28;20484;-58
2020/12/06 10:54:06;;;;;;;13.13;7.18;;;333.60;1536.00;;;;;;5075006;28;20027;-59
2020/12/06 10:56:32;;;;;;;17.15;7.75;;;333.60;1536.00;;;;;;5074642;28;20099;-59
2020/12/06 10:58:58;;;;;;;12.68;8.02;;;333.60;1536.00;;;;;;5074030;28;20139;-59
2020/12/06 11:01:28;;;;;;;10.88;6.70;;;333.60;1536.00;;;;;;5074148;28;20017;-59
2020/12/06 11:03:54;;;;;;;14.00;8.50;;;333.60;1536.00;;;;;;5074223;28;20508;-59
2020/12/06 11:06:23;;;;;;;13.60;8.40;;;333.60;1536.00;;;;;;5074387;28;20028;-58
2020/12/06 11:08:50;;;;;;;10.40;6.80;;;333.50;1561.60;;;;;;5073731;28;20028;-61
2020/12/06 11:11:16;;;;;;;9.60;6.38;;;333.60;1561.60;;;;;;5074245;28;20031;-59
2020/12/06 11:13:43;;;;;;;17.58;8.48;;;333.60;1561.60;;;;;;5074543;28;20095;-60
2020/12/06 11:16:09;;;;;;;17.98;12.45;;;333.60;1536.00;;;;;;5074539;28;20501;-61
2020/12/06 11:18:35;;;;;;;10.63;7.32;;;333.60;1536.00;;;;;;5074210;28;20462;-59
2020/12/06 11:21:01;;;;;;;10.85;7.25;;;333.70;1536.00;;;;;;5074023;28;20141;-59
2020/12/06 11:23:27;;;;;;;10.05;6.57;;;333.70;1536.00;;;;;;5074415;28;20078;-57
2020/12/06 11:25:53;;;;;;;13.40;7.75;;;333.70;1536.00;;;;;;5074139;28;20024;-60
2020/12/06 11:28:20;;;;;;;13.65;11.77;;;333.70;1536.00;;;;;;5074149;28;20124;-61
2020/12/06 11:30:45;;;;;;;13.13;9.98;;;358.40;1536.00;;;;;;5073950;28;20021;-60
2020/12/06 11:33:11;;;;;;;11.35;7.50;;;358.40;1510.40;;;;;;5073725;28;20081;-60
2020/12/06 11:35:37;;;;;;;14.38;11.20;;;358.40;1510.40;;;;;;5073832;28;20056;-58
2020/12/06 11:38:03;;;;;;;10.77;7.15;;;358.50;1484.80;;;;;;5074026;28;20017;-58
2020/12/06 11:40:30;;;;;;;12.23;7.28;;;358.50;1484.80;;;;;;5073962;28;20038;-61
2020/12/06 11:42:55;;;;;;;14.10;6.85;;;358.50;1484.80;;;;;;5073606;28;20378;-58
2020/12/06 11:45:21;;;;;;;10.77;6.70;;;358.50;1484.80;;;;;;5073289;28;20028;-58
2020/12/06 11:47:47;;;;;;;9.95;7.00;;;358.40;1484.80;;;;;;5073650;28;20332;-59
2020/12/06 11:50:13;;;;;;;10.52;7.13;;;358.50;1484.80;;;;;;5073738;28;20035;-58
2020/12/06 11:52:38;;;;;;;14.02;7.60;;;358.50;1484.80;;;;;;5073464;28;20013;-58
2020/12/06 11:55:04;;;;;;;11.18;7.00;;;358.50;1484.80;;;;;;5074183;28;20032;-57
2020/12/06 11:57:30;;;;;;;10.98;7.38;;;358.50;1484.80;;;;;;5072683;28;20048;-58
2020/12/06 11:59:55;;;;;;;11.65;7.72;;;333.70;1510.40;;;;;;5073399;28;20074;-56
2020/12/06 12:02:21;;;;;;;11.65;7.97;;;333.70;1510.40;;;;;;5071762;28;20483;-56
2020/12/06 12:04:47;;;;;;;14.43;9.00;;;358.50;1484.80;;;;;;5073681;28;20056;-59
2020/12/06 12:07:14;;;;;;;22.60;12.57;;;358.60;1484.80;;;;;;5071065;28;20422;-57